Terminal Aerodrome Forecast
Issued by NWS Cleveland, OH

Home | Current Version | Previous Version | Graphics & Text | Print | Product List | Glossary Off
Versions: 1 2 3 4 5 6 7 8 9 10 11 12 13 14 15 16 17 18 19 20

000
FTUS41 KCLE 160500
TAFYNG
TAF
KYNG 160520Z 1606/1706 30006KT P6SM -SN SCT010 BKN015
      TEMPO 1606/1609 2SM -SHSN
     FM160900 VRB03KT P6SM SCT025 BKN050
     FM161400 06006KT P6SM SCT250
     FM170300 08008KT P6SM BKN250=

USA.gov is the U.S. government's official web portal to all federal, state and local government web resources and services.